sensor_id;sensor_type;location;lat;lon;timestamp;P1;durP1;ratioP1;P2;durP2;ratioP2
39680;SDS011;26327;42.550;23.120;2023-12-20T00:01:00;131.27;;;63.88;;
39680;SDS011;26327;42.550;23.120;2023-12-20T00:03:26;115.00;;;57.85;;
39680;SDS011;26327;42.550;23.120;2023-12-20T00:05:51;104.60;;;50.17;;
39680;SDS011;26327;42.550;23.120;2023-12-20T00:08:17;98.55;;;48.35;;
39680;SDS011;26327;42.550;23.120;2023-12-20T00:10:45;96.35;;;49.58;;
39680;SDS011;26327;42.550;23.120;2023-12-20T00:13:10;119.82;;;61.30;;
39680;SDS011;26327;42.550;23.120;2023-12-20T00:15:36;138.65;;;69.47;;
39680;SDS011;26327;42.550;23.120;2023-12-20T00:18:02;155.80;;;73.97;;
39680;SDS011;26327;42.550;23.120;2023-12-20T00:20:28;156.20;;;73.15;;
39680;SDS011;26327;42.550;23.120;2023-12-20T00:22:57;185.02;;;81.50;;
39680;SDS011;26327;42.550;23.120;2023-12-20T00:25:23;135.03;;;64.90;;
39680;SDS011;26327;42.550;23.120;2023-12-20T00:27:49;181.55;;;79.25;;
39680;SDS011;26327;42.550;23.120;2023-12-20T00:30:14;174.05;;;73.28;;
39680;SDS011;26327;42.550;23.120;2023-12-20T00:32:39;173.00;;;70.25;;
39680;SDS011;26327;42.550;23.120;2023-12-20T00:35:11;180.80;;;74.72;;
39680;SDS011;26327;42.550;23.120;2023-12-20T00:37:39;193.40;;;73.80;;
39680;SDS011;26327;42.550;23.120;2023-12-20T00:40:05;187.60;;;71.80;;
39680;SDS011;26327;42.550;23.120;2023-12-20T00:42:30;176.15;;;71.22;;
39680;SDS011;26327;42.550;23.120;2023-12-20T00:44:56;220.38;;;74.72;;
39680;SDS011;26327;42.550;23.120;2023-12-20T00:47:21;203.25;;;73.68;;
39680;SDS011;26327;42.550;23.120;2023-12-20T00:49:47;179.52;;;72.03;;
39680;SDS011;26327;42.550;23.120;2023-12-20T00:52:12;164.93;;;70.47;;
39680;SDS011;26327;42.550;23.120;2023-12-20T00:54:38;198.45;;;76.55;;
39680;SDS011;26327;42.550;23.120;2023-12-20T00:57:03;169.70;;;75.68;;
39680;SDS011;26327;42.550;23.120;2023-12-20T00:59:29;204.60;;;86.05;;
39680;SDS011;26327;42.550;23.120;2023-12-20T01:01:54;180.52;;;79.35;;
39680;SDS011;26327;42.550;23.120;2023-12-20T01:04:20;166.27;;;76.90;;
39680;SDS011;26327;42.550;23.120;2023-12-20T01:06:45;195.52;;;85.20;;
39680;SDS011;26327;42.550;23.120;2023-12-20T01:09:10;160.90;;;76.07;;
39680;SDS011;26327;42.550;23.120;2023-12-20T01:11:36;156.38;;;77.05;;
39680;SDS011;26327;42.550;23.120;2023-12-20T01:14:01;161.45;;;78.65;;
39680;SDS011;26327;42.550;23.120;2023-12-20T01:16:26;156.90;;;74.30;;
39680;SDS011;26327;42.550;23.120;2023-12-20T01:18:52;139.60;;;67.95;;
39680;SDS011;26327;42.550;23.120;2023-12-20T01:21:17;140.40;;;64.20;;
39680;SDS011;26327;42.550;23.120;2023-12-20T01:23:42;135.35;;;61.90;;
39680;SDS011;26327;42.550;23.120;2023-12-20T01:26:08;133.05;;;59.53;;
39680;SDS011;26327;42.550;23.120;2023-12-20T01:28:34;131.13;;;61.40;;
39680;SDS011;26327;42.550;23.120;2023-12-20T01:30:59;146.25;;;64.18;;
39680;SDS011;26327;42.550;23.120;2023-12-20T01:33:24;134.57;;;60.55;;
39680;SDS011;26327;42.550;23.120;2023-12-20T01:35:50;157.18;;;65.05;;
39680;SDS011;26327;42.550;23.120;2023-12-20T01:38:15;155.65;;;64.20;;
39680;SDS011;26327;42.550;23.120;2023-12-20T01:40:43;157.00;;;67.28;;
39680;SDS011;26327;42.550;23.120;2023-12-20T01:43:09;149.07;;;67.07;;
39680;SDS011;26327;42.550;23.120;2023-12-20T01:45:36;140.50;;;63.08;;
39680;SDS011;26327;42.550;23.120;2023-12-20T01:48:02;136.20;;;65.35;;
39680;SDS011;26327;42.550;23.120;2023-12-20T01:50:29;147.98;;;61.25;;
39680;SDS011;26327;42.550;23.120;2023-12-20T01:52:56;175.60;;;66.03;;
39680;SDS011;26327;42.550;23.120;2023-12-20T01:55:25;156.55;;;66.82;;
39680;SDS011;26327;42.550;23.120;2023-12-20T01:57:52;180.68;;;66.00;;
39680;SDS011;26327;42.550;23.120;2023-12-20T02:00:18;153.05;;;64.82;;
39680;SDS011;26327;42.550;23.120;2023-12-20T02:02:48;144.20;;;65.80;;
39680;SDS011;26327;42.550;23.120;2023-12-20T02:05:14;160.77;;;68.65;;
39680;SDS011;26327;42.550;23.120;2023-12-20T02:07:41;183.68;;;76.45;;
39680;SDS011;26327;42.550;23.120;2023-12-20T02:10:06;177.75;;;72.70;;
39680;SDS011;26327;42.550;23.120;2023-12-20T02:12:32;147.02;;;65.75;;
39680;SDS011;26327;42.550;23.120;2023-12-20T02:14:58;162.93;;;66.65;;
39680;SDS011;26327;42.550;23.120;2023-12-20T02:17:23;155.25;;;70.97;;
39680;SDS011;26327;42.550;23.120;2023-12-20T02:19:49;154.85;;;66.47;;
39680;SDS011;26327;42.550;23.120;2023-12-20T02:22:15;166.20;;;68.90;;
39680;SDS011;26327;42.550;23.120;2023-12-20T02:24:40;183.90;;;76.32;;
39680;SDS011;26327;42.550;23.120;2023-12-20T02:27:06;204.95;;;82.38;;
39680;SDS011;26327;42.550;23.120;2023-12-20T02:29:33;184.82;;;79.15;;
39680;SDS011;26327;42.550;23.120;2023-12-20T02:32:01;188.55;;;80.38;;
39680;SDS011;26327;42.550;23.120;2023-12-20T02:34:27;180.38;;;80.03;;
39680;SDS011;26327;42.550;23.120;2023-12-20T02:36:53;193.43;;;81.28;;
39680;SDS011;26327;42.550;23.120;2023-12-20T02:39:19;172.90;;;74.80;;
39680;SDS011;26327;42.550;23.120;2023-12-20T02:41:44;159.00;;;69.35;;
39680;SDS011;26327;42.550;23.120;2023-12-20T02:44:09;162.23;;;71.53;;
39680;SDS011;26327;42.550;23.120;2023-12-20T02:46:35;169.43;;;74.95;;
39680;SDS011;26327;42.550;23.120;2023-12-20T02:49:00;146.70;;;70.43;;
39680;SDS011;26327;42.550;23.120;2023-12-20T02:51:26;139.85;;;65.72;;
39680;SDS011;26327;42.550;23.120;2023-12-20T02:53:51;134.30;;;67.97;;
39680;SDS011;26327;42.550;23.120;2023-12-20T02:56:17;135.00;;;64.80;;
39680;SDS011;26327;42.550;23.120;2023-12-20T02:58:42;136.50;;;66.85;;
39680;SDS011;26327;42.550;23.120;2023-12-20T03:01:07;127.82;;;63.58;;
39680;SDS011;26327;42.550;23.120;2023-12-20T03:03:33;142.27;;;63.30;;
39680;SDS011;26327;42.550;23.120;2023-12-20T03:06:00;155.25;;;67.00;;
39680;SDS011;26327;42.550;23.120;2023-12-20T03:08:25;124.03;;;55.63;;
39680;SDS011;26327;42.550;23.120;2023-12-20T03:10:51;119.25;;;56.67;;
39680;SDS011;26327;42.550;23.120;2023-12-20T03:13:16;113.35;;;55.30;;
39680;SDS011;26327;42.550;23.120;2023-12-20T03:15:41;130.75;;;53.53;;
39680;SDS011;26327;42.550;23.120;2023-12-20T03:18:07;122.47;;;52.63;;
39680;SDS011;26327;42.550;23.120;2023-12-20T03:20:32;132.25;;;52.60;;
39680;SDS011;26327;42.550;23.120;2023-12-20T03:23:01;108.75;;;52.53;;
39680;SDS011;26327;42.550;23.120;2023-12-20T03:25:26;127.15;;;52.78;;
39680;SDS011;26327;42.550;23.120;2023-12-20T03:27:52;127.35;;;56.30;;
39680;SDS011;26327;42.550;23.120;2023-12-20T03:30:17;120.47;;;53.88;;
39680;SDS011;26327;42.550;23.120;2023-12-20T03:32:43;102.80;;;50.67;;
39680;SDS011;26327;42.550;23.120;2023-12-20T03:35:09;105.43;;;48.67;;
39680;SDS011;26327;42.550;23.120;2023-12-20T03:37:34;111.38;;;51.67;;
39680;SDS011;26327;42.550;23.120;2023-12-20T03:40:00;107.93;;;51.47;;
39680;SDS011;26327;42.550;23.120;2023-12-20T03:42:26;116.03;;;52.45;;
39680;SDS011;26327;42.550;23.120;2023-12-20T03:44:51;160.65;;;57.30;;
39680;SDS011;26327;42.550;23.120;2023-12-20T03:47:16;137.43;;;58.28;;
39680;SDS011;26327;42.550;23.120;2023-12-20T03:49:42;147.80;;;65.22;;
39680;SDS011;26327;42.550;23.120;2023-12-20T03:52:07;175.45;;;69.93;;
39680;SDS011;26327;42.550;23.120;2023-12-20T03:54:33;173.77;;;71.30;;
39680;SDS011;26327;42.550;23.120;2023-12-20T03:57:00;162.98;;;67.57;;
39680;SDS011;26327;42.550;23.120;2023-12-20T03:59:25;154.65;;;66.95;;
39680;SDS011;26327;42.550;23.120;2023-12-20T04:01:50;146.30;;;67.60;;
39680;SDS011;26327;42.550;23.120;2023-12-20T04:04:16;151.10;;;69.45;;
39680;SDS011;26327;42.550;23.120;2023-12-20T04:06:41;160.18;;;69.80;;
39680;SDS011;26327;42.550;23.120;2023-12-20T04:09:07;150.50;;;67.57;;
39680;SDS011;26327;42.550;23.120;2023-12-20T04:11:34;154.07;;;69.47;;
39680;SDS011;26327;42.550;23.120;2023-12-20T04:13:59;140.23;;;65.03;;
39680;SDS011;26327;42.550;23.120;2023-12-20T04:16:25;130.25;;;62.33;;
39680;SDS011;26327;42.550;23.120;2023-12-20T04:18:51;132.23;;;64.53;;
39680;SDS011;26327;42.550;23.120;2023-12-20T04:21:16;117.65;;;53.83;;
39680;SDS011;26327;42.550;23.120;2023-12-20T04:23:42;81.97;;;44.05;;
39680;SDS011;26327;42.550;23.120;2023-12-20T04:26:07;92.07;;;45.65;;
39680;SDS011;26327;42.550;23.120;2023-12-20T04:28:33;80.57;;;42.35;;
39680;SDS011;26327;42.550;23.120;2023-12-20T04:30:58;82.78;;;42.38;;
39680;SDS011;26327;42.550;23.120;2023-12-20T04:33:23;78.70;;;40.25;;
39680;SDS011;26327;42.550;23.120;2023-12-20T04:35:49;84.90;;;43.83;;
39680;SDS011;26327;42.550;23.120;2023-12-20T04:38:15;89.38;;;44.17;;
39680;SDS011;26327;42.550;23.120;2023-12-20T04:40:40;90.13;;;46.38;;
39680;SDS011;26327;42.550;23.120;2023-12-20T04:43:06;88.28;;;45.03;;
39680;SDS011;26327;42.550;23.120;2023-12-20T04:45:32;89.18;;;44.00;;
39680;SDS011;26327;42.550;23.120;2023-12-20T04:47:58;95.68;;;49.78;;
39680;SDS011;26327;42.550;23.120;2023-12-20T04:50:23;102.82;;;47.78;;
39680;SDS011;26327;42.550;23.120;2023-12-20T04:52:48;105.32;;;51.55;;
39680;SDS011;26327;42.550;23.120;2023-12-20T04:55:14;103.82;;;52.45;;
39680;SDS011;26327;42.550;23.120;2023-12-20T04:57:39;99.95;;;49.97;;
39680;SDS011;26327;42.550;23.120;2023-12-20T05:00:05;101.25;;;51.85;;
39680;SDS011;26327;42.550;23.120;2023-12-20T05:02:33;105.25;;;52.53;;
39680;SDS011;26327;42.550;23.120;2023-12-20T05:04:58;81.65;;;45.15;;
39680;SDS011;26327;42.550;23.120;2023-12-20T05:07:24;106.88;;;52.88;;
39680;SDS011;26327;42.550;23.120;2023-12-20T05:09:49;110.20;;;50.88;;
39680;SDS011;26327;42.550;23.120;2023-12-20T05:12:14;90.88;;;43.83;;
39680;SDS011;26327;42.550;23.120;2023-12-20T05:14:40;88.50;;;43.17;;
39680;SDS011;26327;42.550;23.120;2023-12-20T05:17:05;94.53;;;44.35;;
39680;SDS011;26327;42.550;23.120;2023-12-20T05:19:31;90.35;;;40.25;;
39680;SDS011;26327;42.550;23.120;2023-12-20T05:22:00;100.18;;;46.30;;
39680;SDS011;26327;42.550;23.120;2023-12-20T05:24:25;97.10;;;45.50;;
39680;SDS011;26327;42.550;23.120;2023-12-20T05:26:51;86.32;;;43.38;;
39680;SDS011;26327;42.550;23.120;2023-12-20T05:29:16;88.53;;;43.30;;
39680;SDS011;26327;42.550;23.120;2023-12-20T05:31:42;90.72;;;44.13;;
39680;SDS011;26327;42.550;23.120;2023-12-20T05:34:07;97.30;;;45.28;;
39680;SDS011;26327;42.550;23.120;2023-12-20T05:36:33;101.65;;;46.97;;
39680;SDS011;26327;42.550;23.120;2023-12-20T05:38:58;108.53;;;48.83;;
39680;SDS011;26327;42.550;23.120;2023-12-20T05:41:23;112.80;;;47.90;;
39680;SDS011;26327;42.550;23.120;2023-12-20T05:43:49;116.00;;;49.60;;
39680;SDS011;26327;42.550;23.120;2023-12-20T05:46:14;142.00;;;56.35;;
39680;SDS011;26327;42.550;23.120;2023-12-20T05:48:39;114.57;;;51.45;;
39680;SDS011;26327;42.550;23.120;2023-12-20T05:51:05;118.30;;;52.63;;
39680;SDS011;26327;42.550;23.120;2023-12-20T05:53:30;136.60;;;58.65;;
39680;SDS011;26327;42.550;23.120;2023-12-20T05:55:55;161.90;;;71.38;;
39680;SDS011;26327;42.550;23.120;2023-12-20T05:58:21;138.75;;;65.45;;
39680;SDS011;26327;42.550;23.120;2023-12-20T06:00:46;108.03;;;52.05;;
39680;SDS011;26327;42.550;23.120;2023-12-20T06:03:12;99.57;;;48.25;;
39680;SDS011;26327;42.550;23.120;2023-12-20T06:05:37;101.32;;;51.50;;
39680;SDS011;26327;42.550;23.120;2023-12-20T06:08:03;110.75;;;55.05;;
39680;SDS011;26327;42.550;23.120;2023-12-20T06:10:29;104.47;;;49.78;;
39680;SDS011;26327;42.550;23.120;2023-12-20T06:12:54;102.40;;;48.70;;
39680;SDS011;26327;42.550;23.120;2023-12-20T06:15:21;99.75;;;48.42;;
39680;SDS011;26327;42.550;23.120;2023-12-20T06:17:46;96.82;;;46.38;;
39680;SDS011;26327;42.550;23.120;2023-12-20T06:20:15;88.35;;;42.72;;
39680;SDS011;26327;42.550;23.120;2023-12-20T06:22:40;81.55;;;40.35;;
39680;SDS011;26327;42.550;23.120;2023-12-20T06:25:06;82.82;;;40.97;;
39680;SDS011;26327;42.550;23.120;2023-12-20T06:27:32;70.43;;;35.58;;
39680;SDS011;26327;42.550;23.120;2023-12-20T06:29:57;73.78;;;37.72;;
39680;SDS011;26327;42.550;23.120;2023-12-20T06:32:24;67.70;;;33.35;;
39680;SDS011;26327;42.550;23.120;2023-12-20T06:34:49;66.90;;;34.10;;
39680;SDS011;26327;42.550;23.120;2023-12-20T06:37:15;67.57;;;34.33;;
39680;SDS011;26327;42.550;23.120;2023-12-20T06:39:40;67.38;;;34.58;;
39680;SDS011;26327;42.550;23.120;2023-12-20T06:42:06;71.65;;;34.55;;
39680;SDS011;26327;42.550;23.120;2023-12-20T06:44:31;92.03;;;43.90;;
39680;SDS011;26327;42.550;23.120;2023-12-20T06:46:57;139.57;;;59.13;;
39680;SDS011;26327;42.550;23.120;2023-12-20T06:49:22;169.70;;;78.07;;
39680;SDS011;26327;42.550;23.120;2023-12-20T06:51:48;170.85;;;81.35;;
39680;SDS011;26327;42.550;23.120;2023-12-20T06:54:13;132.93;;;64.95;;
39680;SDS011;26327;42.550;23.120;2023-12-20T06:56:39;133.75;;;62.45;;
39680;SDS011;26327;42.550;23.120;2023-12-20T06:59:04;157.25;;;73.32;;
39680;SDS011;26327;42.550;23.120;2023-12-20T07:01:29;93.40;;;48.75;;
39680;SDS011;26327;42.550;23.120;2023-12-20T07:03:55;93.00;;;45.25;;
39680;SDS011;26327;42.550;23.120;2023-12-20T07:06:20;86.15;;;43.60;;
39680;SDS011;26327;42.550;23.120;2023-12-20T07:08:46;90.22;;;42.35;;
39680;SDS011;26327;42.550;23.120;2023-12-20T07:11:11;96.15;;;44.33;;
39680;SDS011;26327;42.550;23.120;2023-12-20T07:13:37;85.45;;;40.20;;
39680;SDS011;26327;42.550;23.120;2023-12-20T07:16:02;79.13;;;38.67;;
39680;SDS011;26327;42.550;23.120;2023-12-20T07:18:28;80.75;;;39.13;;
39680;SDS011;26327;42.550;23.120;2023-12-20T07:20:54;85.28;;;43.42;;
39680;SDS011;26327;42.550;23.120;2023-12-20T07:23:20;96.00;;;44.40;;
39680;SDS011;26327;42.550;23.120;2023-12-20T07:25:46;92.82;;;44.95;;
39680;SDS011;26327;42.550;23.120;2023-12-20T07:28:12;90.90;;;44.60;;
39680;SDS011;26327;42.550;23.120;2023-12-20T07:30:37;208.07;;;95.78;;
39680;SDS011;26327;42.550;23.120;2023-12-20T07:33:03;184.40;;;88.15;;
39680;SDS011;26327;42.550;23.120;2023-12-20T07:35:28;127.75;;;64.05;;
39680;SDS011;26327;42.550;23.120;2023-12-20T07:37:54;95.15;;;50.60;;
39680;SDS011;26327;42.550;23.120;2023-12-20T07:40:19;103.70;;;49.90;;
39680;SDS011;26327;42.550;23.120;2023-12-20T07:42:45;91.88;;;46.10;;
39680;SDS011;26327;42.550;23.120;2023-12-20T07:45:10;96.63;;;50.22;;
39680;SDS011;26327;42.550;23.120;2023-12-20T07:47:36;99.22;;;52.13;;
39680;SDS011;26327;42.550;23.120;2023-12-20T07:50:02;162.10;;;79.03;;
39680;SDS011;26327;42.550;23.120;2023-12-20T07:52:28;148.38;;;74.22;;
39680;SDS011;26327;42.550;23.120;2023-12-20T07:54:54;99.47;;;50.55;;
39680;SDS011;26327;42.550;23.120;2023-12-20T07:57:20;102.10;;;53.95;;
39680;SDS011;26327;42.550;23.120;2023-12-20T07:59:45;95.63;;;48.72;;
39680;SDS011;26327;42.550;23.120;2023-12-20T08:02:10;100.43;;;52.50;;
39680;SDS011;26327;42.550;23.120;2023-12-20T08:04:36;93.05;;;50.53;;
39680;SDS011;26327;42.550;23.120;2023-12-20T08:07:01;105.05;;;49.78;;
39680;SDS011;26327;42.550;23.120;2023-12-20T08:09:27;100.07;;;47.72;;
39680;SDS011;26327;42.550;23.120;2023-12-20T08:11:52;102.25;;;51.15;;
39680;SDS011;26327;42.550;23.120;2023-12-20T08:14:17;111.03;;;56.53;;
39680;SDS011;26327;42.550;23.120;2023-12-20T08:16:43;113.65;;;55.42;;
39680;SDS011;26327;42.550;23.120;2023-12-20T08:19:08;135.32;;;62.78;;
39680;SDS011;26327;42.550;23.120;2023-12-20T08:21:33;123.85;;;61.60;;
39680;SDS011;26327;42.550;23.120;2023-12-20T08:23:59;149.05;;;67.90;;
39680;SDS011;26327;42.550;23.120;2023-12-20T08:26:25;175.73;;;83.50;;
39680;SDS011;26327;42.550;23.120;2023-12-20T08:28:51;107.63;;;54.95;;
39680;SDS011;26327;42.550;23.120;2023-12-20T08:31:17;105.68;;;53.92;;
39680;SDS011;26327;42.550;23.120;2023-12-20T08:33:44;108.72;;;55.35;;
39680;SDS011;26327;42.550;23.120;2023-12-20T08:36:10;120.05;;;58.05;;
39680;SDS011;26327;42.550;23.120;2023-12-20T08:38:36;114.03;;;58.70;;
39680;SDS011;26327;42.550;23.120;2023-12-20T08:41:02;108.50;;;58.22;;
39680;SDS011;26327;42.550;23.120;2023-12-20T08:43:30;118.10;;;63.10;;
39680;SDS011;26327;42.550;23.120;2023-12-20T08:45:55;111.97;;;63.20;;
39680;SDS011;26327;42.550;23.120;2023-12-20T08:48:20;122.90;;;61.53;;
39680;SDS011;26327;42.550;23.120;2023-12-20T08:50:46;120.70;;;63.70;;
39680;SDS011;26327;42.550;23.120;2023-12-20T08:53:13;125.55;;;66.15;;
39680;SDS011;26327;42.550;23.120;2023-12-20T08:55:40;123.95;;;70.50;;
39680;SDS011;26327;42.550;23.120;2023-12-20T08:58:06;113.28;;;60.80;;
39680;SDS011;26327;42.550;23.120;2023-12-20T09:00:33;126.72;;;66.05;;
39680;SDS011;26327;42.550;23.120;2023-12-20T09:02:58;140.73;;;70.97;;
39680;SDS011;26327;42.550;23.120;2023-12-20T09:05:24;132.07;;;70.10;;
39680;SDS011;26327;42.550;23.120;2023-12-20T09:07:50;142.30;;;73.13;;
39680;SDS011;26327;42.550;23.120;2023-12-20T09:10:15;142.90;;;75.57;;
39680;SDS011;26327;42.550;23.120;2023-12-20T09:12:41;242.07;;;104.43;;
39680;SDS011;26327;42.550;23.120;2023-12-20T09:15:07;170.18;;;80.10;;
39680;SDS011;26327;42.550;23.120;2023-12-20T09:17:33;169.07;;;79.35;;
39680;SDS011;26327;42.550;23.120;2023-12-20T09:19:58;164.57;;;78.20;;
39680;SDS011;26327;42.550;23.120;2023-12-20T09:22:25;173.13;;;82.00;;
39680;SDS011;26327;42.550;23.120;2023-12-20T09:24:50;141.15;;;69.53;;
39680;SDS011;26327;42.550;23.120;2023-12-20T09:27:16;135.50;;;67.40;;
39680;SDS011;26327;42.550;23.120;2023-12-20T09:29:41;120.13;;;65.85;;
39680;SDS011;26327;42.550;23.120;2023-12-20T09:32:07;123.88;;;64.18;;
39680;SDS011;26327;42.550;23.120;2023-12-20T09:34:33;126.15;;;67.78;;
39680;SDS011;26327;42.550;23.120;2023-12-20T09:36:58;129.10;;;71.07;;
39680;SDS011;26327;42.550;23.120;2023-12-20T09:39:23;127.47;;;71.07;;
39680;SDS011;26327;42.550;23.120;2023-12-20T09:41:51;133.52;;;73.35;;
39680;SDS011;26327;42.550;23.120;2023-12-20T09:44:20;149.07;;;80.00;;
39680;SDS011;26327;42.550;23.120;2023-12-20T09:46:47;151.70;;;79.38;;
39680;SDS011;26327;42.550;23.120;2023-12-20T09:49:15;168.40;;;85.67;;
39680;SDS011;26327;42.550;23.120;2023-12-20T09:51:43;176.00;;;87.88;;
39680;SDS011;26327;42.550;23.120;2023-12-20T09:54:11;163.75;;;82.75;;
39680;SDS011;26327;42.550;23.120;2023-12-20T09:56:39;153.25;;;76.10;;
39680;SDS011;26327;42.550;23.120;2023-12-20T09:59:04;156.15;;;80.45;;
39680;SDS011;26327;42.550;23.120;2023-12-20T10:01:29;173.95;;;84.07;;
39680;SDS011;26327;42.550;23.120;2023-12-20T10:03:56;129.35;;;66.25;;
39680;SDS011;26327;42.550;23.120;2023-12-20T10:06:24;195.88;;;99.72;;
39680;SDS011;26327;42.550;23.120;2023-12-20T10:08:49;139.25;;;75.45;;
39680;SDS011;26327;42.550;23.120;2023-12-20T10:11:14;109.85;;;59.60;;
39680;SDS011;26327;42.550;23.120;2023-12-20T10:13:40;109.22;;;56.83;;
39680;SDS011;26327;42.550;23.120;2023-12-20T10:16:06;90.22;;;51.03;;
39680;SDS011;26327;42.550;23.120;2023-12-20T10:18:35;104.85;;;57.80;;
39680;SDS011;26327;42.550;23.120;2023-12-20T10:21:01;90.30;;;53.75;;
39680;SDS011;26327;42.550;23.120;2023-12-20T10:23:26;90.38;;;49.88;;
39680;SDS011;26327;42.550;23.120;2023-12-20T10:25:58;146.57;;;75.07;;
39680;SDS011;26327;42.550;23.120;2023-12-20T10:28:24;111.63;;;58.13;;
39680;SDS011;26327;42.550;23.120;2023-12-20T10:30:52;93.15;;;54.55;;
39680;SDS011;26327;42.550;23.120;2023-12-20T10:33:28;28.38;;;13.35;;
39680;SDS011;26327;42.550;23.120;2023-12-20T10:35:57;14.63;;;4.97;;
39680;SDS011;26327;42.550;23.120;2023-12-20T10:38:22;22.05;;;7.32;;
39680;SDS011;26327;42.550;23.120;2023-12-20T10:40:48;12.38;;;5.13;;
39680;SDS011;26327;42.550;23.120;2023-12-20T10:43:14;19.58;;;7.65;;
39680;SDS011;26327;42.550;23.120;2023-12-20T10:45:41;25.55;;;7.45;;
39680;SDS011;26327;42.550;23.120;2023-12-20T10:48:07;18.52;;;6.85;;
39680;SDS011;26327;42.550;23.120;2023-12-20T10:50:36;27.88;;;6.13;;
39680;SDS011;26327;42.550;23.120;2023-12-20T10:53:06;21.48;;;6.03;;
39680;SDS011;26327;42.550;23.120;2023-12-20T10:55:31;34.10;;;10.23;;
39680;SDS011;26327;42.550;23.120;2023-12-20T10:58:01;32.35;;;10.75;;
39680;SDS011;26327;42.550;23.120;2023-12-20T11:00:31;32.42;;;9.95;;
39680;SDS011;26327;42.550;23.120;2023-12-20T11:03:00;24.80;;;7.93;;
39680;SDS011;26327;42.550;23.120;2023-12-20T11:05:36;28.42;;;8.73;;
39680;SDS011;26327;42.550;23.120;2023-12-20T11:08:12;22.80;;;6.00;;
39680;SDS011;26327;42.550;23.120;2023-12-20T11:13:57;20.00;;;5.60;;
39680;SDS011;26327;42.550;23.120;2023-12-20T11:16:27;17.27;;;5.13;;
39680;SDS011;26327;42.550;23.120;2023-12-20T11:18:52;25.23;;;8.20;;
39680;SDS011;26327;42.550;23.120;2023-12-20T11:21:17;21.50;;;6.38;;
39680;SDS011;26327;42.550;23.120;2023-12-20T11:23:43;16.25;;;7.38;;
39680;SDS011;26327;42.550;23.120;2023-12-20T11:26:08;15.90;;;6.40;;
39680;SDS011;26327;42.550;23.120;2023-12-20T11:28:34;12.38;;;5.68;;
39680;SDS011;26327;42.550;23.120;2023-12-20T11:31:00;20.42;;;7.65;;
39680;SDS011;26327;42.550;23.120;2023-12-20T11:33:29;19.58;;;6.70;;
39680;SDS011;26327;42.550;23.120;2023-12-20T11:35:56;21.13;;;6.55;;
39680;SDS011;26327;42.550;23.120;2023-12-20T11:38:22;13.52;;;5.20;;
39680;SDS011;26327;42.550;23.120;2023-12-20T11:40:48;18.77;;;7.30;;
39680;SDS011;26327;42.550;23.120;2023-12-20T11:46:17;14.15;;;4.30;;
39680;SDS011;26327;42.550;23.120;2023-12-20T11:48:43;14.85;;;6.38;;
39680;SDS011;26327;42.550;23.120;2023-12-20T11:51:13;18.38;;;5.68;;
39680;SDS011;26327;42.550;23.120;2023-12-20T11:53:39;14.40;;;4.90;;
39680;SDS011;26327;42.550;23.120;2023-12-20T11:56:06;9.45;;;4.47;;
39680;SDS011;26327;42.550;23.120;2023-12-20T11:58:32;12.10;;;4.10;;
39680;SDS011;26327;42.550;23.120;2023-12-20T12:00:58;7.70;;;2.50;;
39680;SDS011;26327;42.550;23.120;2023-12-20T12:03:24;23.13;;;7.63;;
39680;SDS011;26327;42.550;23.120;2023-12-20T12:05:49;9.73;;;4.32;;
39680;SDS011;26327;42.550;23.120;2023-12-20T12:08:15;11.00;;;3.35;;
39680;SDS011;26327;42.550;23.120;2023-12-20T12:10:42;13.05;;;5.45;;
39680;SDS011;26327;42.550;23.120;2023-12-20T12:13:08;13.15;;;3.65;;
39680;SDS011;26327;42.550;23.120;2023-12-20T12:15:35;12.90;;;4.40;;
39680;SDS011;26327;42.550;23.120;2023-12-20T12:18:01;12.55;;;3.97;;
39680;SDS011;26327;42.550;23.120;2023-12-20T12:20:26;7.75;;;2.50;;
39680;SDS011;26327;42.550;23.120;2023-12-20T12:25:28;9.38;;;2.95;;
39680;SDS011;26327;42.550;23.120;2023-12-20T12:27:55;11.30;;;3.45;;
39680;SDS011;26327;42.550;23.120;2023-12-20T12:30:21;6.18;;;2.00;;
39680;SDS011;26327;42.550;23.120;2023-12-20T12:32:47;10.00;;;2.42;;
39680;SDS011;26327;42.550;23.120;2023-12-20T12:35:13;8.57;;;1.85;;
39680;SDS011;26327;42.550;23.120;2023-12-20T12:37:40;7.65;;;1.75;;
39680;SDS011;26327;42.550;23.120;2023-12-20T12:40:06;10.07;;;2.50;;
39680;SDS011;26327;42.550;23.120;2023-12-20T12:42:35;7.68;;;2.00;;
39680;SDS011;26327;42.550;23.120;2023-12-20T12:45:00;7.97;;;2.92;;
39680;SDS011;26327;42.550;23.120;2023-12-20T12:47:25;15.00;;;4.22;;
39680;SDS011;26327;42.550;23.120;2023-12-20T12:49:51;10.10;;;3.15;;
39680;SDS011;26327;42.550;23.120;2023-12-20T12:52:18;9.77;;;3.90;;
39680;SDS011;26327;42.550;23.120;2023-12-20T12:54:43;9.15;;;2.85;;
39680;SDS011;26327;42.550;23.120;2023-12-20T12:57:10;13.80;;;4.15;;
39680;SDS011;26327;42.550;23.120;2023-12-20T12:59:36;9.38;;;4.07;;
39680;SDS011;26327;42.550;23.120;2023-12-20T13:02:01;9.60;;;4.13;;
39680;SDS011;26327;42.550;23.120;2023-12-20T13:04:27;21.27;;;5.70;;
39680;SDS011;26327;42.550;23.120;2023-12-20T13:06:53;13.63;;;2.83;;
39680;SDS011;26327;42.550;23.120;2023-12-20T13:09:19;7.50;;;2.35;;
39680;SDS011;26327;42.550;23.120;2023-12-20T13:11:44;9.95;;;3.22;;
39680;SDS011;26327;42.550;23.120;2023-12-20T13:14:09;10.43;;;2.90;;
39680;SDS011;26327;42.550;23.120;2023-12-20T13:16:40;12.93;;;5.68;;
39680;SDS011;26327;42.550;23.120;2023-12-20T13:19:06;20.35;;;5.28;;
39680;SDS011;26327;42.550;23.120;2023-12-20T13:21:31;10.73;;;3.50;;
39680;SDS011;26327;42.550;23.120;2023-12-20T13:23:56;15.38;;;5.07;;
39680;SDS011;26327;42.550;23.120;2023-12-20T13:26:22;12.95;;;4.20;;
39680;SDS011;26327;42.550;23.120;2023-12-20T13:28:47;20.15;;;4.30;;
39680;SDS011;26327;42.550;23.120;2023-12-20T13:31:13;18.33;;;5.65;;
39680;SDS011;26327;42.550;23.120;2023-12-20T13:33:38;38.55;;;9.43;;
39680;SDS011;26327;42.550;23.120;2023-12-20T13:36:04;28.45;;;7.60;;
39680;SDS011;26327;42.550;23.120;2023-12-20T13:38:30;12.38;;;4.15;;
39680;SDS011;26327;42.550;23.120;2023-12-20T13:40:55;14.18;;;4.07;;
39680;SDS011;26327;42.550;23.120;2023-12-20T13:43:23;13.50;;;4.00;;
39680;SDS011;26327;42.550;23.120;2023-12-20T13:45:49;14.88;;;5.15;;
39680;SDS011;26327;42.550;23.120;2023-12-20T13:48:15;11.57;;;4.20;;
39680;SDS011;26327;42.550;23.120;2023-12-20T13:50:41;33.78;;;5.65;;
39680;SDS011;26327;42.550;23.120;2023-12-20T13:53:06;17.30;;;4.90;;
39680;SDS011;26327;42.550;23.120;2023-12-20T13:55:32;13.82;;;4.53;;
39680;SDS011;26327;42.550;23.120;2023-12-20T13:57:57;20.42;;;5.68;;
39680;SDS011;26327;42.550;23.120;2023-12-20T14:00:23;12.73;;;3.88;;
39680;SDS011;26327;42.550;23.120;2023-12-20T14:02:48;16.23;;;4.13;;
39680;SDS011;26327;42.550;23.120;2023-12-20T14:05:15;16.77;;;5.22;;
39680;SDS011;26327;42.550;23.120;2023-12-20T14:07:42;14.43;;;5.13;;